Terminal Aerodrome Forecast
Issued by NWS

Home | Current Version | Previous Version | Text Only | Print | Product List | Glossary On
Versions: 1 2 3 4 5 6 7 8 9 10 11 12 13 14 15 16 17 18 19 20
000
FTUS43 KDTX 241100
TAFYIP
TAF
KYIP 241120Z 2412/2512 11003KT P6SM BKN150
     FM241400 12010KT P6SM OVC120
     FM250600 10007KT P6SM BKN050 OVC100=

USA.gov is the U.S. government's official web portal to all federal, state and local government web resources and services.